Time;durP1;ratioP1;P1;durP2;ratioP2;P2;SDS_P1;SDS_P2;PMS_P1;PMS_P2;Temp;Humidity;BMP_temperature;BMP_pressure;BME280_temperature;BME280_humidity;BME280_pressure;Samples;Min_cycle;Max_cycle;Signal;HPM_P1;HPM_P2
2023/04/15 00:00:06;;;;;;;4.10;2.40;;;;;;;4.16;100.00;100447.38;105676;1251;73767;-57
2023/04/15 00:02:43;;;;;;;5.10;2.40;;;;;;;4.14;100.00;100450.81;105738;1254;63565;-57
2023/04/15 00:05:15;;;;;;;4.50;2.20;;;;;;;4.13;100.00;100453.83;105923;1250;61729;-63
2023/04/15 00:07:46;;;;;;;4.10;2.70;;;;;;;4.13;100.00;100453.36;106031;1249;73490;-57
2023/04/15 00:10:15;;;;;;;6.60;2.80;;;;;;;4.13;100.00;100453.20;105967;1251;68591;-57
2023/04/15 00:12:44;;;;;;;4.40;2.80;;;;;;;4.12;100.00;100452.58;105943;1251;72690;-57
2023/04/15 00:15:14;;;;;;;3.90;2.60;;;;;;;4.12;100.00;100457.92;106001;1251;62563;-58
2023/04/15 00:17:43;;;;;;;4.90;2.60;;;;;;;4.12;100.00;100459.73;106053;1254;60697;-62
2023/04/15 00:20:13;;;;;;;5.30;2.90;;;;;;;4.12;100.00;100461.31;105928;1254;74461;-57
2023/04/15 00:22:42;;;;;;;5.10;2.90;;;;;;;4.13;100.00;100462.14;105883;1251;68545;-57
2023/04/15 00:25:10;;;;;;;6.10;2.60;;;;;;;4.15;100.00;100465.16;105827;1250;74304;-58
2023/04/15 00:27:39;;;;;;;4.90;3.10;;;;;;;4.17;100.00;100466.61;106212;1254;62571;-58
2023/04/15 00:30:09;;;;;;;4.90;3.30;;;;;;;4.16;100.00;100467.67;105904;1250;59995;-56
2023/04/15 00:32:38;;;;;;;6.60;3.10;;;;;;;4.15;100.00;100472.25;106076;1249;73505;-57
2023/04/15 00:35:08;;;;;;;5.50;3.20;;;;;;;4.15;100.00;100467.30;106171;1250;68532;-60
2023/04/15 00:37:37;;;;;;;5.30;3.70;;;;;;;4.15;100.00;100470.20;105817;1250;71978;-62
2023/04/15 00:40:07;;;;;;;5.70;3.30;;;;;;;4.16;100.00;100474.91;106005;1254;62467;-57
2023/04/15 00:42:36;;;;;;;7.90;2.90;;;;;;;4.17;100.00;100476.92;105827;1256;60833;-57
2023/04/15 00:45:05;;;;;;;4.90;3.10;;;;;;;4.16;100.00;100481.66;105844;1254;74443;-57
2023/04/15 00:47:36;;;;;;;4.80;3.20;;;;;;;4.15;100.00;100482.55;105802;1250;68417;-62
2023/04/15 00:50:05;;;;;;;5.80;3.10;;;;;;;4.14;100.00;100491.09;105759;1251;73600;-57
2023/04/15 00:52:34;;;;;;;7.70;3.50;;;;;;;4.13;100.00;100490.79;105853;1250;63235;-58
2023/04/15 00:55:03;;;;;;;4.50;2.80;;;;;;;4.14;100.00;100493.66;105849;1250;61621;-57
2023/04/15 00:57:32;;;;;;;4.70;3.00;;;;;;;4.14;100.00;100497.30;105976;1255;74019;-58
2023/04/15 01:00:04;;;;;;;5.50;3.30;;;;;;;4.13;100.00;100503.39;105902;1250;68557;-57
2023/04/15 01:02:35;;;;;;;4.20;2.70;;;;;;;4.12;100.00;100504.33;105650;1256;73882;-58
2023/04/15 01:05:05;;;;;;;4.70;3.00;;;;;;;4.12;100.00;100505.34;106124;1250;62884;-64
2023/04/15 01:07:34;;;;;;;4.10;2.80;;;;;;;4.11;100.00;100501.84;105978;1250;61515;-57
2023/04/15 01:10:03;;;;;;;6.00;3.60;;;;;;;4.10;100.00;100503.95;105916;1250;74365;-57
2023/04/15 01:12:34;;;;;;;6.00;3.40;;;;;;;4.09;100.00;100508.39;105953;1254;67635;-57
2023/04/15 01:15:03;;;;;;;4.20;2.80;;;;;;;4.08;100.00;100509.19;105986;1252;73941;-58
2023/04/15 01:17:33;;;;;;;5.20;3.30;;;;;;;4.06;100.00;100507.27;105747;1253;63530;-57
2023/04/15 01:20:09;;;;;;;5.00;3.10;;;;;;;4.04;100.00;100513.61;105898;1249;61581;-57
2023/04/15 01:22:38;;;;;;;7.50;3.20;;;;;;;4.03;100.00;100512.50;106208;1252;75333;-57
2023/04/15 01:25:11;;;;;;;6.90;3.10;;;;;;;4.02;100.00;100517.77;105953;1250;67717;-57
2023/04/15 01:27:41;;;;;;;5.30;2.90;;;;;;;4.01;100.00;100520.42;105825;1251;74149;-56
2023/04/15 01:30:10;;;;;;;4.00;2.50;;;;;;;4.00;100.00;100520.34;105956;1251;63479;-56
2023/04/15 01:32:41;;;;;;;4.10;2.50;;;;;;;4.00;100.00;100523.49;105916;1250;60856;-58
2023/04/15 01:35:10;;;;;;;4.70;2.80;;;;;;;3.98;100.00;100524.12;105735;1250;73908;-57
2023/04/15 01:37:38;;;;;;;7.40;3.70;;;;;;;3.99;100.00;100525.83;105869;1254;67408;-56
2023/04/15 01:40:07;;;;;;;4.10;2.60;;;;;;;3.98;100.00;100528.95;105862;1251;73617;-62
2023/04/15 01:42:37;;;;;;;5.40;2.60;;;;;;;3.97;100.00;100527.49;105838;1251;62513;-57
2023/04/15 01:45:07;;;;;;;4.80;2.90;;;;;;;3.97;100.00;100531.63;105906;1251;62492;-57
2023/04/15 01:47:38;;;;;;;5.30;2.70;;;;;;;3.96;100.00;100531.00;105802;1250;74292;-57
2023/04/15 01:50:08;;;;;;;5.00;2.70;;;;;;;3.96;100.00;100534.51;106028;1249;67933;-58
2023/04/15 01:52:37;;;;;;;4.50;2.80;;;;;;;3.95;100.00;100535.11;106188;1251;74488;-61
2023/04/15 01:55:07;;;;;;;5.80;2.80;;;;;;;3.94;100.00;100537.23;106010;1250;63109;-56
2023/04/15 01:57:37;;;;;;;6.50;3.20;;;;;;;3.93;100.00;100537.11;105887;1251;60610;-55
2023/04/15 02:00:07;;;;;;;4.50;2.80;;;;;;;3.92;100.00;100538.61;106074;1256;75377;-63
2023/04/15 02:02:42;;;;;;;6.10;3.10;;;;;;;3.90;100.00;100542.55;106204;1256;68608;-61
2023/04/15 02:05:11;;;;;;;4.90;2.90;;;;;;;3.88;100.00;100544.46;106025;1251;74173;-56
2023/04/15 02:07:39;;;;;;;6.70;3.00;;;;;;;3.85;100.00;100548.11;105982;1251;63583;-56
2023/04/15 02:10:09;;;;;;;5.10;2.70;;;;;;;3.83;100.00;100553.66;105926;1256;60403;-56
2023/04/15 02:12:39;;;;;;;6.40;3.00;;;;;;;3.82;100.00;100556.44;105634;1256;75611;-59
2023/04/15 02:15:09;;;;;;;4.40;2.70;;;;;;;3.81;100.00;100559.15;106065;1250;67529;-57
2023/04/15 02:17:39;;;;;;;6.60;2.80;;;;;;;3.80;100.00;100559.42;105881;1253;73561;-56
2023/04/15 02:20:10;;;;;;;4.20;2.70;;;;;;;3.80;100.00;100558.55;106216;1254;63853;-61
2023/04/15 02:22:38;;;;;;;6.40;2.80;;;;;;;3.80;100.00;100559.77;106239;1253;60431;-59
2023/04/15 02:25:08;;;;;;;3.80;2.40;;;;;;;3.80;100.00;100562.68;105593;1250;73227;-55
2023/04/15 02:27:37;;;;;;;5.00;2.90;;;;;;;3.80;100.00;100564.01;105592;1251;68349;-58
2023/04/15 02:30:06;;;;;;;4.90;3.00;;;;;;;3.80;100.00;100567.45;105906;1250;73169;-58
2023/04/15 02:32:36;;;;;;;4.70;2.50;;;;;;;3.80;100.00;100568.00;105753;1250;63337;-58
2023/04/15 02:35:07;;;;;;;5.50;2.60;;;;;;;3.79;100.00;100574.14;105878;1250;60554;-59
2023/04/15 02:37:42;;;;;;;6.70;2.60;;;;;;;3.78;100.00;100581.41;105947;1249;74271;-55
2023/04/15 02:40:12;;;;;;;6.10;2.80;;;;;;;3.77;100.00;100586.66;105925;1254;68856;-56
2023/04/15 02:42:43;;;;;;;5.50;2.70;;;;;;;3.76;100.00;100587.09;105971;1250;74277;-57
2023/04/15 02:45:14;;;;;;;4.60;2.30;;;;;;;3.74;100.00;100591.39;105816;1256;62143;-56
2023/04/15 02:47:46;;;;;;;5.50;2.90;;;;;;;3.73;100.00;100596.42;105981;1250;61843;-58
2023/04/15 02:50:16;;;;;;;4.40;2.50;;;;;;;3.72;100.00;100597.75;105939;1253;75636;-59
2023/04/15 02:52:44;;;;;;;5.40;2.70;;;;;;;3.71;100.00;100598.63;105927;1249;67622;-58
2023/04/15 02:55:16;;;;;;;4.70;2.60;;;;;;;3.71;100.00;100593.04;105895;1256;73003;-57
2023/04/15 02:57:45;;;;;;;4.40;2.70;;;;;;;3.70;100.00;100603.05;105968;1251;63342;-56
2023/04/15 03:00:15;;;;;;;5.80;2.60;;;;;;;3.70;100.00;100604.60;106296;1250;61680;-62
2023/04/15 03:02:46;;;;;;;4.20;2.50;;;;;;;3.70;100.00;100606.53;106506;1250;75522;-57
2023/04/15 03:05:15;;;;;;;4.70;2.70;;;;;;;3.70;100.00;100613.42;105906;1250;66634;-57
2023/04/15 03:07:49;;;;;;;5.00;2.50;;;;;;;3.70;100.00;100620.58;105901;1256;74244;-57
2023/04/15 03:10:18;;;;;;;7.20;3.20;;;;;;;3.70;100.00;100622.64;105917;1256;62524;-60
2023/04/15 03:12:47;;;;;;;4.80;2.90;;;;;;;3.68;100.00;100622.46;106038;1252;60625;-56
2023/04/15 03:15:25;;;;;;;4.70;2.50;;;;;;;3.66;100.00;100626.40;105805;1250;74578;-58
2023/04/15 03:17:57;;;;;;;6.10;2.90;;;;;;;3.63;100.00;100631.09;105770;1254;68558;-57
2023/04/15 03:20:26;;;;;;;4.00;2.40;;;;;;;3.62;100.00;100636.86;106036;1250;73643;-57
2023/04/15 03:22:58;;;;;;;5.30;2.70;;;;;;;3.61;100.00;100640.42;105815;1250;63550;-57
2023/04/15 03:25:26;;;;;;;4.40;2.90;;;;;;;3.60;100.00;100641.70;105873;1253;61130;-56
2023/04/15 03:27:56;;;;;;;4.70;2.40;;;;;;;3.59;100.00;100645.20;105991;1250;75312;-60
2023/04/15 03:30:31;;;;;;;4.70;2.80;;;;;;;3.59;100.00;100648.30;105713;1250;68659;-56
2023/04/15 03:33:01;;;;;;;5.30;2.90;;;;;;;3.57;100.00;100653.29;105972;1251;73174;-56
2023/04/15 03:35:30;;;;;;;5.40;2.70;;;;;;;3.56;100.00;100661.62;105814;1251;62741;-57
2023/04/15 03:37:58;;;;;;;6.70;2.80;;;;;;;3.54;100.00;100665.75;105933;1253;61687;-57
2023/04/15 03:40:27;;;;;;;6.70;2.60;;;;;;;3.53;100.00;100666.56;105843;1254;75238;-57
2023/04/15 03:42:56;;;;;;;4.50;2.70;;;;;;;3.52;100.00;100671.42;106054;1250;68745;-57
2023/04/15 03:45:25;;;;;;;6.20;3.20;;;;;;;3.52;100.00;100675.21;106011;1254;74293;-56
2023/04/15 03:47:54;;;;;;;7.20;3.30;;;;;;;3.51;100.00;100679.56;106164;1254;62689;-59
2023/04/15 03:50:27;;;;;;;7.30;3.30;;;;;;;3.52;100.00;100684.13;105870;1250;61847;-57
2023/04/15 03:52:56;;;;;;;5.20;2.90;;;;;;;3.52;100.00;100684.45;105903;1251;75390;-56
2023/04/15 03:55:24;;;;;;;5.20;3.40;;;;;;;3.52;100.00;100684.41;106138;1254;68735;-56
2023/04/15 03:57:53;;;;;;;7.40;3.40;;;;;;;3.53;100.00;100689.02;106200;1250;73567;-57
2023/04/15 04:00:22;;;;;;;7.60;3.60;;;;;;;3.53;100.00;100690.38;105805;1250;62223;-55
2023/04/15 04:02:51;;;;;;;6.40;3.20;;;;;;;3.53;100.00;100695.89;105957;1255;60341;-56
2023/04/15 04:05:20;;;;;;;5.80;3.00;;;;;;;3.53;100.00;100698.29;105927;1249;75291;-56
2023/04/15 04:07:48;;;;;;;11.20;3.60;;;;;;;3.53;100.00;100701.70;105846;1250;69009;-62
2023/04/15 04:10:17;;;;;;;6.20;3.40;;;;;;;3.54;100.00;100704.60;105891;1251;74074;-57
2023/04/15 04:12:46;;;;;;;5.90;3.20;;;;;;;3.54;100.00;100697.38;105937;1250;62410;-56
2023/04/15 04:15:16;;;;;;;9.90;3.30;;;;;;;3.55;100.00;100701.73;105794;1250;61613;-57
2023/04/15 04:17:45;;;;;;;6.70;3.80;;;;;;;3.57;100.00;100708.94;106213;1249;74203;-58
2023/04/15 04:20:14;;;;;;;6.30;3.80;;;;;;;3.61;100.00;100712.10;105990;1250;67283;-57
2023/04/15 04:22:45;;;;;;;10.30;3.70;;;;;;;3.63;100.00;100712.74;106049;1250;74071;-59
2023/04/15 04:25:13;;;;;;;7.60;3.40;;;;;;;3.66;100.00;100709.04;105992;1250;63731;-57
2023/04/15 04:27:44;;;;;;;6.00;3.50;;;;;;;3.68;100.00;100717.20;106238;1249;60620;-63
2023/04/15 04:30:15;;;;;;;5.00;3.00;;;;;;;3.68;100.00;100718.23;105967;1250;74453;-55
2023/04/15 04:32:48;;;;;;;6.70;3.10;;;;;;;3.66;100.00;100721.30;106015;1251;67859;-58
2023/04/15 04:35:17;;;;;;;10.90;3.70;;;;;;;3.65;100.00;100724.07;106149;1254;74176;-56
2023/04/15 04:37:51;;;;;;;12.30;3.70;;;;;;;3.65;100.00;100724.39;106001;1254;62392;-61
2023/04/15 04:40:20;;;;;;;6.00;3.00;;;;;;;3.63;100.00;100726.10;106029;1253;60686;-59
2023/04/15 04:42:49;;;;;;;7.60;3.70;;;;;;;3.62;100.00;100733.48;105905;1253;75162;-55
2023/04/15 04:45:18;;;;;;;7.30;3.40;;;;;;;3.59;100.00;100733.55;105938;1251;68450;-55
2023/04/15 04:47:47;;;;;;;8.90;3.50;;;;;;;3.56;100.00;100738.61;106152;1251;74346;-62
2023/04/15 04:50:16;;;;;;;9.10;3.20;;;;;;;3.52;100.00;100741.32;106017;1254;63423;-56
2023/04/15 04:52:50;;;;;;;9.10;3.20;;;;;;;3.50;100.00;100744.81;105862;1251;61877;-56
2023/04/15 04:55:19;;;;;;;10.70;4.10;;;;;;;3.49;100.00;100744.89;105982;1250;75354;-55
2023/04/15 04:57:47;;;;;;;8.10;3.30;;;;;;;3.48;100.00;100750.60;106156;1249;69165;-61
2023/04/15 05:00:18;;;;;;;5.80;3.60;;;;;;;3.47;100.00;100751.23;105771;1254;73466;-55
2023/04/15 05:02:46;;;;;;;7.80;3.70;;;;;;;3.47;100.00;100755.98;105990;1250;60729;-55
2023/04/15 05:05:15;;;;;;;11.80;5.00;;;;;;;3.48;100.00;100754.34;106078;1250;61765;-56
2023/04/15 05:07:45;;;;;;;6.50;3.40;;;;;;;3.53;100.00;100761.41;106182;1254;73944;-57
2023/04/15 05:10:16;;;;;;;8.90;3.60;;;;;;;3.54;100.00;100764.08;106020;1250;66649;-55
2023/04/15 05:12:45;;;;;;;7.60;3.60;;;;;;;3.52;100.00;100768.34;105963;1254;74266;-56
2023/04/15 05:15:15;;;;;;;9.70;3.30;;;;;;;3.51;100.00;100768.41;105915;1251;60908;-60
2023/04/15 05:17:44;;;;;;;10.40;4.60;;;;;;;3.50;100.00;100771.56;106365;1250;60422;-59
2023/04/15 05:20:13;;;;;;;7.00;3.60;;;;;;;3.49;100.00;100774.38;105670;1254;74036;-60
2023/04/15 05:22:43;;;;;;;7.20;3.40;;;;;;;3.49;100.00;100770.27;105848;1250;69016;-58
2023/04/15 05:25:15;;;;;;;9.90;4.80;;;;;;;3.50;100.00;100775.38;106080;1251;73085;-59
2023/04/15 05:27:45;;;;;;;6.30;3.40;;;;;;;3.51;100.00;100777.72;106323;1250;60645;-59
2023/04/15 05:30:14;;;;;;;7.10;3.60;;;;;;;3.52;100.00;100777.80;105974;1249;60416;-60
2023/04/15 05:32:43;;;;;;;10.80;4.00;;;;;;;3.52;100.00;100777.26;106183;1249;75364;-58
2023/04/15 05:35:12;;;;;;;6.40;3.70;;;;;;;3.53;100.00;100783.34;106062;1251;68560;-59
2023/04/15 05:37:41;;;;;;;7.70;3.90;;;;;;;3.54;100.00;100784.10;106294;1256;73166;-60
2023/04/15 05:40:11;;;;;;;8.10;3.60;;;;;;;3.55;100.00;100787.14;105865;1250;62541;-59
2023/04/15 05:42:39;;;;;;;7.10;3.50;;;;;;;3.57;100.00;100789.73;105942;1250;61013;-59
2023/04/15 05:45:12;;;;;;;8.20;4.30;;;;;;;3.61;100.00;100791.32;105966;1251;75463;-58
2023/04/15 05:47:41;;;;;;;9.20;4.20;;;;;;;3.63;100.00;100796.23;106021;1253;66882;-62
2023/04/15 05:50:10;;;;;;;7.40;3.80;;;;;;;3.67;100.00;100797.35;105924;1254;73483;-58
2023/04/15 05:52:39;;;;;;;11.20;4.50;;;;;;;3.70;100.00;100795.71;106098;1251;61614;-58
2023/04/15 05:55:09;;;;;;;7.70;4.00;;;;;;;3.73;100.00;100793.61;106045;1253;61921;-58
2023/04/15 05:57:38;;;;;;;7.20;3.90;;;;;;;3.74;100.00;100798.70;106170;1249;74097;-59
2023/04/15 06:00:07;;;;;;;8.10;4.00;;;;;;;3.74;100.00;100805.70;105668;1254;67686;-56
2023/04/15 06:02:42;;;;;;;8.80;4.10;;;;;;;3.73;100.00;100806.33;105795;1250;73504;-57
2023/04/15 06:05:11;;;;;;;6.70;3.60;;;;;;;3.75;100.00;100809.13;106093;1251;62814;-65
2023/04/15 06:07:40;;;;;;;6.80;3.70;;;;;;;3.82;100.00;100811.80;106063;1251;61456;-61
2023/04/15 06:10:09;;;;;;;7.80;3.50;;;;;;;3.87;100.00;100817.16;106042;1250;73870;-57
2023/04/15 06:12:39;;;;;;;7.50;3.70;;;;;;;3.93;100.00;100824.10;106035;1250;68567;-57
2023/04/15 06:15:10;;;;;;;9.40;4.10;;;;;;;3.97;100.00;100827.92;106056;1254;74164;-57
2023/04/15 06:17:38;;;;;;;9.50;4.10;;;;;;;4.03;100.00;100832.90;106090;1251;63686;-61
2023/04/15 06:20:12;;;;;;;8.50;4.50;;;;;;;4.06;100.00;100838.02;105804;1254;61825;-56
2023/04/15 06:22:41;;;;;;;8.70;4.20;;;;;;;4.05;100.00;100840.16;106139;1251;75284;-57
2023/04/15 06:25:10;;;;;;;8.20;4.40;;;;;;;4.06;100.00;100841.59;105972;1256;67696;-57
2023/04/15 06:27:40;;;;;;;7.40;4.00;;;;;;;4.12;100.00;100850.91;106125;1250;74033;-63
2023/04/15 06:30:09;;;;;;;7.00;3.80;;;;;;;4.16;100.00;100851.94;105714;1253;62354;-57
2023/04/15 06:32:39;;;;;;;14.30;4.10;;;;;;;4.20;100.00;100857.64;105744;1253;61702;-57
2023/04/15 06:35:09;;;;;;;8.40;3.90;;;;;;;4.21;100.00;100859.17;106124;1250;73387;-60
2023/04/15 06:37:37;;;;;;;6.80;3.50;;;;;;;4.20;100.00;100862.83;106135;1250;67896;-62
2023/04/15 06:40:07;;;;;;;9.00;4.30;;;;;;;4.22;100.00;100870.08;105846;1254;74360;-56
2023/04/15 06:42:37;;;;;;;7.10;3.80;;;;;;;4.23;100.00;100870.45;105716;1253;62420;-57
2023/04/15 06:45:07;;;;;;;9.80;4.40;;;;;;;4.26;100.00;100872.10;105883;1250;60508;-55
2023/04/15 06:47:36;;;;;;;5.80;3.90;;;;;;;4.32;100.00;100878.30;106030;1253;73701;-57
2023/04/15 06:50:05;;;;;;;7.10;4.30;;;;;;;4.38;100.00;100884.05;106055;1251;68064;-57
2023/04/15 06:52:35;;;;;;;7.40;3.40;;;;;;;4.41;100.00;100886.03;105788;1250;73360;-56
2023/04/15 06:55:05;;;;;;;10.70;3.80;;;;;;;4.40;100.00;100886.07;106021;1250;63387;-58
2023/04/15 06:57:34;;;;;;;6.40;3.60;;;;;;;4.44;100.00;100889.42;105933;1254;61317;-57
2023/04/15 07:00:04;;;;;;;8.50;4.60;;;;;;;4.51;100.00;100889.14;105768;1253;75283;-58
2023/04/15 07:02:34;;;;;;;7.60;4.10;;;;;;;4.62;100.00;100890.47;105824;1251;68163;-56
2023/04/15 07:05:03;;;;;;;10.30;4.80;;;;;;;4.69;100.00;100895.42;106541;1251;72857;-57
2023/04/15 07:07:36;;;;;;;8.00;3.70;;;;;;;4.69;100.00;100894.52;105870;1256;63534;-57
2023/04/15 07:10:07;;;;;;;7.00;3.50;;;;;;;4.67;100.00;100900.05;105921;1251;61532;-56
2023/04/15 07:12:35;;;;;;;5.70;3.30;;;;;;;4.64;100.00;100900.07;105760;1250;75416;-56
2023/04/15 07:15:05;;;;;;;7.10;3.40;;;;;;;4.62;100.00;100899.88;106264;1254;67650;-58
2023/04/15 07:17:34;;;;;;;7.20;3.80;;;;;;;4.59;100.00;100907.42;106052;1251;74238;-57
2023/04/15 07:20:04;;;;;;;8.00;3.70;;;;;;;4.56;100.00;100909.17;105992;1251;63427;-57
2023/04/15 07:22:33;;;;;;;8.20;3.40;;;;;;;4.57;100.00;100913.46;106058;1250;61818;-55
2023/04/15 07:25:03;;;;;;;8.80;3.80;;;;;;;4.57;100.00;100916.48;106115;1250;75652;-56
2023/04/15 07:27:31;;;;;;;5.90;3.60;;;;;;;4.59;100.00;100922.89;105970;1250;68576;-57
2023/04/15 07:30:00;;;;;;;13.50;5.20;;;;;;;4.61;100.00;100926.83;105933;1251;73936;-56
2023/04/15 07:32:29;;;;;;;8.40;3.70;;;;;;;4.61;100.00;100927.52;105929;1250;63403;-56
2023/04/15 07:35:02;;;;;;;11.00;3.40;;;;;;;4.59;100.00;100932.33;105797;1251;60846;-61
2023/04/15 07:37:31;;;;;;;7.20;3.80;;;;;;;4.58;100.00;100940.49;105944;1254;75068;-58
2023/04/15 07:40:00;;;;;;;10.10;4.30;;;;;;;4.55;100.00;100937.17;105969;1256;67583;-58
2023/04/15 07:42:35;;;;;;;8.80;3.80;;;;;;;4.53;100.00;100931.84;106404;1250;73276;-57
2023/04/15 07:45:07;;;;;;;9.80;4.10;;;;;;;4.58;100.00;100931.09;106032;1257;62333;-58
2023/04/15 07:47:35;;;;;;;12.40;5.30;;;;;;;4.61;100.00;100932.65;105793;1254;60538;-57
2023/04/15 07:50:09;;;;;;;7.50;5.00;;;;;;;4.64;100.00;100930.41;106028;1251;75322;-57
2023/04/15 07:52:43;;;;;;;9.70;4.00;;;;;;;4.68;100.00;100929.42;105915;1254;68703;-61
2023/04/15 07:55:11;;;;;;;9.20;4.00;;;;;;;4.75;100.00;100933.27;105806;1250;73878;-57
2023/04/15 07:57:46;;;;;;;7.10;4.20;;;;;;;4.82;100.00;100934.41;105871;1250;63894;-57
2023/04/15 08:00:16;;;;;;;7.40;3.80;;;;;;;4.89;100.00;100939.48;105980;1254;61963;-57
2023/04/15 08:02:47;;;;;;;9.00;5.20;;;;;;;4.96;100.00;100944.62;106172;1254;75497;-59
2023/04/15 08:05:16;;;;;;;10.50;5.20;;;;;;;4.98;100.00;100941.44;106048;1250;68733;-57
2023/04/15 08:07:48;;;;;;;8.20;4.30;;;;;;;4.99;100.00;100940.38;105943;1250;74190;-57
2023/04/15 08:10:18;;;;;;;14.20;7.20;;;;;;;5.01;100.00;100942.44;106023;1255;63329;-58
2023/04/15 08:12:48;;;;;;;15.60;9.20;;;;;;;5.05;100.00;100940.74;106305;1250;61847;-60
2023/04/15 08:15:22;;;;;;;9.30;4.60;;;;;;;5.11;100.00;100942.45;105743;1251;75084;-58
2023/04/15 08:17:52;;;;;;;9.30;4.80;;;;;;;5.21;100.00;100944.39;106020;1250;68559;-59
2023/04/15 08:20:21;;;;;;;9.70;5.20;;;;;;;5.27;100.00;100935.91;106027;1251;74484;-56
2023/04/15 08:22:50;;;;;;;12.50;6.40;;;;;;;5.34;100.00;100936.89;106013;1250;63845;-56
2023/04/15 08:25:20;;;;;;;9.90;3.90;;;;;;;5.40;100.00;100936.49;105975;1251;61821;-57
2023/04/15 08:27:55;;;;;;;7.50;3.60;;;;;;;5.45;100.00;100939.88;105897;1256;75388;-56
2023/04/15 08:30:26;;;;;;;8.30;4.00;;;;;;;5.50;100.00;100940.80;105850;1254;68558;-61
2023/04/15 08:32:55;;;;;;;9.40;5.40;;;;;;;5.56;100.00;100940.42;105924;1255;74621;-58
2023/04/15 08:35:24;;;;;;;22.90;15.10;;;;;;;5.58;100.00;100940.64;105946;1250;62717;-56
2023/04/15 08:37:53;;;;;;;11.40;5.90;;;;;;;5.63;100.00;100948.66;106122;1251;60623;-57
2023/04/15 08:40:22;;;;;;;11.10;4.60;;;;;;;5.77;100.00;100946.56;105904;1251;73593;-57
2023/04/15 08:42:58;;;;;;;7.00;3.70;;;;;;;5.89;100.00;100949.66;105756;1250;68908;-56
2023/04/15 08:45:27;;;;;;;10.00;4.60;;;;;;;5.97;100.00;100946.90;105839;1256;73280;-56
2023/04/15 08:48:00;;;;;;;9.20;4.40;;;;;;;6.03;100.00;100937.21;105727;1257;62239;-57
2023/04/15 08:50:29;;;;;;;8.00;4.40;;;;;;;6.09;100.00;100935.48;106087;1254;61634;-62
2023/04/15 08:53:01;;;;;;;12.40;6.80;;;;;;;6.12;100.00;100937.00;105707;1255;75451;-56
2023/04/15 08:55:34;;;;;;;7.50;4.70;;;;;;;6.09;100.00;100932.17;105791;1250;67690;-56
2023/04/15 08:58:03;;;;;;;9.40;4.00;;;;;;;6.09;100.00;100935.25;105679;1251;74901;-55
2023/04/15 09:00:33;;;;;;;8.70;4.90;;;;;;;6.19;100.00;100930.64;105373;1258;63486;-56
2023/04/15 09:03:02;;;;;;;8.70;5.10;;;;;;;6.34;100.00;100932.76;106097;1250;61753;-56
2023/04/15 09:05:32;;;;;;;10.80;4.50;;;;;;;6.48;100.00;100937.70;105841;1256;75320;-56
2023/04/15 09:08:02;;;;;;;6.80;4.00;;;;;;;6.55;100.00;100929.87;106014;1256;67308;-57
2023/04/15 09:10:31;;;;;;;12.40;4.70;;;;;;;6.61;100.00;100933.73;106047;1250;74386;-56
2023/04/15 09:13:02;;;;;;;9.90;5.90;;;;;;;6.64;100.00;100936.09;105873;1250;61960;-56
2023/04/15 09:15:31;;;;;;;11.60;7.40;;;;;;;6.65;100.00;100940.62;105856;1256;61884;-55
2023/04/15 09:18:00;;;;;;;9.20;4.50;;;;;;;6.64;100.00;100943.63;105696;1256;455310;-61
2023/04/15 09:20:28;;;;;;;7.10;3.40;;;;;;;6.69;100.00;100942.48;105987;1254;67349;-56
2023/04/15 09:22:57;;;;;;;7.40;3.90;;;;;;;6.78;100.00;100941.15;105986;1250;74099;-57
2023/04/15 09:25:27;;;;;;;12.00;4.60;;;;;;;6.92;100.00;100938.85;106141;1250;62035;-57
2023/04/15 09:27:57;;;;;;;13.00;4.80;;;;;;;7.05;100.00;100935.67;105750;1251;60816;-57
2023/04/15 09:30:27;;;;;;;9.30;4.20;;;;;;;7.18;100.00;100938.83;105868;1255;75609;-57
2023/04/15 09:32:57;;;;;;;8.50;3.80;;;;;;;7.19;100.00;100929.36;105869;1250;68538;-56
2023/04/15 09:35:26;;;;;;;10.40;5.00;;;;;;;7.23;100.00;100934.17;105949;1251;74101;-56
2023/04/15 09:38:06;;;;;;;11.00;4.60;;;;;;;7.39;100.00;100931.14;106211;1255;61773;-58
2023/04/15 09:40:41;;;;;;;9.10;5.50;;;;;;;7.62;100.00;100931.88;105769;1257;61244;-56
2023/04/15 09:43:11;;;;;;;10.70;5.60;;;;;;;7.78;100.00;100926.33;105855;1254;75136;-61
2023/04/15 09:45:46;;;;;;;9.30;4.50;;;;;;;7.88;100.00;100923.94;105946;1250;68913;-56
2023/04/15 09:48:19;;;;;;;8.40;4.70;;;;;;;7.98;100.00;100918.61;105897;1250;73643;-57
2023/04/15 09:50:48;;;;;;;10.50;4.20;;;;;;;8.09;100.00;100909.09;106005;1250;63267;-57
2023/04/15 09:53:19;;;;;;;10.20;4.30;;;;;;;8.20;100.00;100916.14;105981;1251;61630;-57
2023/04/15 09:55:59;;;;;;;12.70;5.00;;;;;;;8.31;100.00;100922.14;106033;1250;74633;-62
2023/04/15 09:58:34;;;;;;;10.40;4.30;;;;;;;8.43;100.00;100930.89;105943;1251;68550;-55
2023/04/15 10:01:04;;;;;;;11.90;4.30;;;;;;;8.53;100.00;100928.65;105913;1251;74061;-58
2023/04/15 10:03:37;;;;;;;7.60;4.90;;;;;;;8.66;100.00;100928.11;106087;1253;61783;-60
2023/04/15 10:06:05;;;;;;;8.30;4.70;;;;;;;8.76;100.00;100931.21;105877;1255;60801;-57
2023/04/15 10:08:34;;;;;;;9.90;4.50;;;;;;;8.82;100.00;100929.20;105959;1256;75512;-57
2023/04/15 10:11:03;;;;;;;10.00;5.00;;;;;;;8.86;100.00;100933.01;106021;1256;67523;-58
2023/04/15 10:13:34;;;;;;;8.70;4.50;;;;;;;8.86;100.00;100931.04;105818;1251;73923;-59
2023/04/15 10:16:11;;;;;;;13.80;4.60;;;;;;;8.86;100.00;100925.90;105967;1250;60447;-56
2023/04/15 10:18:44;;;;;;;9.30;4.60;;;;;;;8.94;100.00;100926.56;105824;1251;61841;-57
2023/04/15 10:21:17;;;;;;;7.80;3.60;;;;;;;9.23;100.00;100918.25;105820;1256;75141;-58
2023/04/15 10:23:45;;;;;;;9.20;5.20;;;;;;;9.51;100.00;100915.23;105844;1254;68074;-57
2023/04/15 10:26:14;;;;;;;10.10;4.70;;;;;;;9.75;100.00;100909.60;105861;1256;73185;-59
2023/04/15 10:28:44;;;;;;;11.80;5.40;;;;;;;9.98;100.00;100903.62;105861;1251;61771;-58
2023/04/15 10:31:13;;;;;;;8.30;4.70;;;;;;;10.18;100.00;100898.89;105710;1251;61638;-59
2023/04/15 10:33:43;;;;;;;11.90;5.60;;;;;;;10.33;100.00;100893.89;106003;1256;75694;-56
2023/04/15 10:36:14;;;;;;;8.80;4.10;;;;;;;10.38;100.00;100891.40;106064;1250;68790;-60
2023/04/15 10:38:44;;;;;;;11.60;5.20;;;;;;;10.51;100.00;100887.69;105799;1255;73250;-57
2023/04/15 10:41:25;;;;;;;8.70;4.30;;;;;;;10.74;100.00;100893.88;106072;1256;61826;-63
2023/04/15 10:43:59;;;;;;;7.30;4.10;;;;;;;10.91;100.00;100901.70;105928;1251;61817;-63
2023/04/15 10:46:39;;;;;;;6.80;4.10;;;;;;;10.89;100.00;100900.73;105605;1250;74691;-58
2023/04/15 10:49:11;;;;;;;9.20;4.40;;;;;;;10.81;100.00;100892.06;105615;1256;67108;-57
2023/04/15 10:51:41;;;;;;;10.90;4.50;;;;;;;10.80;100.00;100889.81;105973;1251;74799;-57
2023/04/15 10:54:25;;;;;;;9.30;4.30;;;;;;;10.61;100.00;100902.95;106092;1250;61656;-58
2023/04/15 10:57:00;;;;;;;9.40;4.50;;;;;;;10.33;100.00;100906.03;105890;1251;62153;-62
2023/04/15 10:59:30;;;;;;;8.30;3.80;;;;;;;10.11;100.00;100902.58;106017;1250;75134;-56
2023/04/15 11:02:03;;;;;;;8.80;4.90;;;;;;;10.01;100.00;100911.17;105884;1256;67743;-57
2023/04/15 11:04:51;;;;;;;7.60;4.60;;;;;;;9.93;100.00;100908.34;105813;1255;73976;-60
2023/04/15 11:07:33;;;;;;;7.00;4.10;;;;;;;9.80;100.00;100914.10;105861;1256;60592;-58
2023/04/15 11:10:03;;;;;;;11.60;4.50;;;;;;;9.59;100.00;100914.34;105998;1250;61537;-57
2023/04/15 11:12:35;;;;;;;9.70;4.50;;;;;;;9.40;100.00;100911.86;105943;1253;75361;-57
2023/04/15 11:15:26;;;;;;;11.80;5.90;;;;;;;9.32;100.00;100916.98;105860;1256;68724;-58
2023/04/15 11:17:55;;;;;;;10.70;4.70;;;;;;;9.28;100.00;100911.38;106179;1250;74138;-62
2023/04/15 11:20:25;;;;;;;11.70;5.30;;;;;;;9.32;100.00;100902.77;106223;1253;62947;-60
2023/04/15 11:22:53;;;;;;;8.60;4.20;;;;;;;9.41;100.00;100895.95;106005;1253;60351;-57
2023/04/15 11:25:42;;;;;;;7.80;4.40;;;;;;;9.44;100.00;100906.44;106137;1256;75812;-60
2023/04/15 11:28:12;;;;;;;10.90;4.60;;;;;;;9.40;100.00;100904.88;105962;1250;68467;-57